This is the latest recevied weather packets stored in our database for station/object G6UYG-13. If no packets are shown the sender has not sent any weather packets the latest 10 day(s).
| Time | Temp. | Humidity | Pressure | Rain* | Wind** | Luminosity | Snow |
|---|---|---|---|---|---|---|---|
| 1777961376 | 9.44° C | 81% | 1013.3 hPa | 0 mm | - | 167 W/m² | - |
| 1777960956 | 9.44° C | 85% | 1013.3 hPa | 0 mm | - | 144 W/m² | - |
| 1777960536 | 8.89° C | 87% | 1013.3 hPa | 0 mm | - | 125 W/m² | - |
| 1777960116 | 8.33° C | 89% | 1013.2 hPa | 0 mm | - | 107 W/m² | - |
| 1777959696 | 7.78° C | 91% | 1013.3 hPa | 0 mm | - | 91 W/m² | - |
| 1777959276 | 7.22° C | 92% | 1013.3 hPa | 0 mm | - | 77 W/m² | - |
| 1777958976 | 7.22° C | 92% | 1013.4 hPa | 0 mm | - | 62 W/m² | - |
| 1777958856 | 7.22° C | 92% | 1013.4 hPa | 0 mm | - | 62 W/m² | - |
| 1777958436 | 6.67° C | 92% | 1013.3 hPa | 0 mm | - | 46 W/m² | - |
| 1777958016 | 6.67° C | 91% | 1013.4 hPa | 0 mm | - | 30 W/m² | - |
| 1777957596 | 6.67° C | 91% | 1013.4 hPa | 0 mm | - | 26 W/m² | - |
| 1777957176 | 6.67° C | 91% | 1013.3 hPa | 0 mm | - | 16 W/m² | - |
| 1777956756 | 6.67° C | 91% | 1013.3 hPa | 0 mm | - | 12 W/m² | - |
| 1777956336 | 6.67° C | 91% | 1013.2 hPa | 0 mm | - | 9 W/m² | - |
| 1777955916 | 6.67° C | 91% | 1013.2 hPa | 0 mm | - | 5 W/m² | - |
| 1777955496 | 7.22° C | 91% | 1013.2 hPa | 0 mm | - | 0 W/m² | - |
| 1777955076 | 7.22° C | 91% | 1013.1 hPa | 0 mm | - | 0 W/m² | - |
| 1777954656 | 7.22° C | 91% | 1013.2 hPa | 0 mm | - | 0 W/m² | - |
| 1777954236 | 7.22° C | 91% | 1013.2 hPa | 0 mm | - | 0 W/m² | - |
| 1777953816 | 7.78° C | 91% | 1013.2 hPa | 0 mm | - | 0 W/m² | - |
| 1777953396 | 7.78° C | 91% | 1013.1 hPa | 0 mm | - | 0 W/m² | - |
| 1777952976 | 7.78° C | 91% | 1013.1 hPa | 0 mm | - | 0 W/m² | - |
| 1777952556 | 7.78° C | 91% | 1013 hPa | 0 mm | - | 0 W/m² | - |
| 1777952137 | 7.78° C | 91% | 1013.1 hPa | 0 mm | - | 0 W/m² | - |
| 1777951716 | 7.78° C | 91% | 1013.1 hPa | 0 mm | - | 0 W/m² | - |
* Rain latest hour (hover to see other rain measurements)
** Current wind speed in m/s (hover to see current wind gust speed)